Time;durP1;ratioP1;P1;durP2;ratioP2;P2;SDS_P1;SDS_P2;PMS_P1;PMS_P2;Temp;Humidity;BMP_temperature;BMP_pressure;BME280_temperature;BME280_humidity;BME280_pressure;Samples;Min_cycle;Max_cycle;Signal;HPM_P1;HPM_P2
2022/09/29 00:01:15;;;;;;;;;6.00;4.00;;;;;21.11;45.38;98010.44;5019760;28;8850;-78
2022/09/29 00:03:45;;;;;;;;;5.60;5.40;;;;;21.09;45.48;98002.59;5091418;28;8860;-79
2022/09/29 00:06:16;;;;;;;;;4.80;4.80;;;;;21.16;45.26;98008.31;5092323;28;8986;-79
2022/09/29 00:08:46;;;;;;;;;6.20;4.00;;;;;21.13;44.97;98001.41;5056853;28;8846;-79
2022/09/29 00:11:16;;;;;;;;;2.60;2.60;;;;;21.17;44.83;98002.06;5073698;28;8939;-81
2022/09/29 00:13:46;;;;;;;;;1.60;1.60;;;;;21.37;44.46;97998.03;5090760;28;8880;-79
2022/09/29 00:16:15;;;;;;;;;3.60;3.40;;;;;21.35;43.96;97998.13;5091421;28;8942;-78
2022/09/29 00:18:45;;;;;;;;;3.60;3.60;;;;;21.31;44.47;97995.81;5056723;28;8857;-78
2022/09/29 00:21:15;;;;;;;;;3.00;3.00;;;;;21.37;44.63;97996.22;5072937;28;8841;-79
2022/09/29 00:23:44;;;;;;;;;4.20;3.60;;;;;21.40;43.83;97996.03;5091245;28;9637;-82
2022/09/29 00:26:15;;;;;;;;;5.20;3.40;;;;;21.37;43.83;97998.88;5056656;28;8848;-80
2022/09/29 00:28:48;;;;;;;;;2.60;2.60;;;;;21.53;43.71;97981.91;5070311;28;8840;-78
2022/09/29 00:31:16;;;;;;;;;4.00;3.00;;;;;21.57;43.69;97978.97;5052927;28;8828;-78
2022/09/29 00:33:46;;;;;;;;;2.00;2.00;;;;;21.43;43.49;97971.91;5069565;28;9017;-78
2022/09/29 00:36:17;;;;;;;;;2.80;2.00;;;;;21.61;43.37;97975.13;5052651;28;8855;-77
2022/09/29 00:38:47;;;;;;;;;4.20;1.80;;;;;21.65;43.02;97972.25;5035646;28;8901;-79
2022/09/29 00:41:18;;;;;;;;;4.40;4.00;;;;;21.82;42.97;97966.59;5035868;28;8852;-78
2022/09/29 00:43:57;;;;;;;;;4.20;3.00;;;;;21.77;42.75;97977.53;4998211;28;8888;-79
2022/09/29 00:46:39;;;;;;;;;3.20;3.20;;;;;21.79;42.75;97978.25;5067871;28;9786;-80
2022/09/29 00:49:17;;;;;;;;;2.60;2.00;;;;;21.64;43.18;97973.22;5035585;28;8840;-80
2022/09/29 00:51:51;;;;;;;;;3.00;3.00;;;;;21.67;43.41;97973.84;5051884;28;8960;-79
2022/09/29 00:54:21;;;;;;;;;3.40;2.60;;;;;21.68;43.30;97983.50;5053844;28;8921;-79
2022/09/29 00:56:50;;;;;;;;;4.00;3.60;;;;;21.77;43.66;97982.81;5048844;28;8900;-80
2022/09/29 00:59:27;;;;;;;;;4.20;4.20;;;;;21.76;43.70;97986.44;5048609;28;8846;-80
2022/09/29 01:01:55;;;;;;;;;4.60;4.20;;;;;21.94;43.05;97983.44;5035645;28;9067;-80
2022/09/29 01:04:26;;;;;;;;;1.00;1.00;;;;;21.91;43.14;97978.31;5051046;28;8890;-80
2022/09/29 01:06:57;;;;;;;;;3.40;3.40;;;;;21.73;43.25;97980.50;5027692;28;8864;-79
2022/09/29 01:09:29;;;;;;;;;4.00;3.00;;;;;21.73;43.33;97976.03;5011720;28;8853;-80
2022/09/29 01:11:58;;;;;;;;;4.00;2.60;;;;;21.74;43.66;97972.44;5026441;28;8872;-79
2022/09/29 01:14:29;;;;;;;;;4.00;3.80;;;;;21.94;42.84;97968.34;4997125;28;9717;-77
2022/09/29 01:16:58;;;;;;;;;3.00;3.00;;;;;21.98;42.82;97961.88;5028974;28;8848;-79
2022/09/29 01:19:43;;;;;;;;;4.00;2.60;;;;;21.97;42.96;97965.47;5013699;28;8860;-79
2022/09/29 01:22:22;;;;;;;;;4.00;2.00;;;;;21.92;42.96;97959.66;5032300;28;8846;-79
2022/09/29 01:25:10;;;;;;;;;3.00;3.00;;;;;22.00;42.43;97959.97;5048173;28;9689;-79
2022/09/29 01:28:19;;;;;;;;;2.00;2.00;;;;;21.99;42.70;97952.94;5047301;28;8845;-79
2022/09/29 01:31:09;;;;;;;;;4.40;2.40;;;;;22.29;42.54;97961.47;4937804;28;8852;-78
2022/09/29 01:33:43;;;;;;;;;4.80;3.00;;;;;22.17;42.25;97969.34;4957339;28;8864;-77
2022/09/29 01:36:22;;;;;;;;;2.00;2.00;;;;;22.09;42.57;97971.69;4962290;28;8929;-76
2022/09/29 01:39:05;;;;;;;;;3.80;2.80;;;;;22.03;42.83;97966.84;4998846;28;8874;-77
2022/09/29 01:41:40;;;;;;;;;1.60;1.60;;;;;22.11;43.15;97967.13;5007366;28;8858;-77
2022/09/29 01:44:18;;;;;;;;;3.80;3.00;;;;;22.07;42.55;97965.66;5007039;28;8849;-78
2022/09/29 01:46:53;;;;;;;;;1.80;1.80;;;;;22.34;42.29;97959.28;5004906;28;8872;-77
2022/09/29 01:49:26;;;;;;;;;2.60;2.60;;;;;22.28;42.34;97957.09;4971200;28;9054;-76
2022/09/29 01:52:00;;;;;;;;;3.20;3.20;;;;;22.32;42.10;97962.06;4970939;28;9079;-78
2022/09/29 01:54:37;;;;;;;;;3.40;2.80;;;;;22.26;41.77;97956.38;4996639;28;8842;-78
2022/09/29 01:57:10;;;;;;;;;3.40;2.00;;;;;22.12;42.14;97958.19;4990366;28;8866;-78
2022/09/29 01:59:45;;;;;;;;;1.80;1.80;;;;;22.15;42.03;97963.25;5006510;28;9470;-78
2022/09/29 02:02:19;;;;;;;;;3.80;2.80;;;;;22.12;42.04;97960.03;4989163;28;8874;-76
2022/09/29 02:04:52;;;;;;;;;1.80;1.80;;;;;22.26;41.97;97956.38;5043076;28;8884;-77
2022/09/29 02:07:26;;;;;;;;;2.00;2.00;;;;;22.24;41.68;97959.09;5087778;28;8935;-76
2022/09/29 02:10:02;;;;;;;;;1.80;1.80;;;;;22.28;41.73;97957.09;5086755;28;8830;-77
2022/09/29 02:12:35;;;;;;;;;2.20;2.20;;;;;22.31;41.86;97960.38;5051693;28;8857;-77
2022/09/29 02:15:08;;;;;;;;;3.60;2.80;;;;;22.30;41.78;97960.50;5084434;28;8869;-77
2022/09/29 02:17:42;;;;;;;;;6.20;4.40;;;;;22.18;42.01;97955.09;5087462;28;8895;-78
2022/09/29 02:20:13;;;;;;;;;1.80;1.80;;;;;22.40;41.49;97953.53;5085569;28;8992;-77
2022/09/29 02:22:42;;;;;;;;;2.60;2.60;;;;;22.50;41.59;97954.53;5086949;28;8854;-78
2022/09/29 02:25:14;;;;;;;;;3.00;3.00;;;;;22.42;41.54;97950.75;5087105;28;8873;-78
2022/09/29 02:27:43;;;;;;;;;2.00;2.00;;;;;22.28;41.98;97957.09;5051302;28;9618;-78
2022/09/29 02:30:12;;;;;;;;;4.00;2.00;;;;;22.43;41.40;97948.00;5086859;28;8876;-78
2022/09/29 02:32:42;;;;;;;;;1.20;1.20;;;;;22.44;41.34;97949.69;5021203;28;8842;-78
2022/09/29 02:35:14;;;;;;;;;2.40;2.40;;;;;22.31;41.92;97948.91;5086855;28;8838;-77
2022/09/29 02:37:58;;;;;;;;;3.40;2.80;;;;;22.40;41.64;97948.25;5087293;28;8943;-78
2022/09/29 02:40:42;;;;;;;;;2.80;1.80;;;;;22.25;41.68;97951.97;5087016;28;8842;-77
2022/09/29 02:43:24;;;;;;;;;2.00;1.00;;;;;22.07;41.95;97955.03;5086279;28;8976;-77
2022/09/29 02:46:12;;;;;;;;;2.40;0.80;;;;;22.32;41.43;97947.94;5086209;28;9548;-78
2022/09/29 02:49:13;;;;;;;;;3.00;1.20;;;;;22.31;41.55;97946.25;5001386;28;8892;-77
2022/09/29 02:51:47;;;;;;;;;2.20;2.20;;;;;22.39;41.01;97944.72;5085574;28;8888;-77
2022/09/29 02:54:33;;;;;;;;;2.00;2.00;;;;;22.51;40.81;97945.63;5086517;28;9031;-78
2022/09/29 02:57:16;;;;;;;;;3.80;1.80;;;;;22.35;41.13;97953.88;5086198;28;8850;-77
2022/09/29 02:59:52;;;;;;;;;1.40;1.40;;;;;22.47;40.71;97957.41;5035083;28;8849;-77
2022/09/29 03:02:24;;;;;;;;;2.00;1.60;;;;;22.55;40.40;97962.16;5051817;28;8849;-77
2022/09/29 03:04:54;;;;;;;;;2.20;2.20;;;;;22.41;40.48;97957.88;5086929;28;8976;-77
2022/09/29 03:07:23;;;;;;;;;2.00;2.00;;;;;22.55;40.32;97956.84;5086176;28;8853;-77
2022/09/29 03:09:51;;;;;;;;;2.80;2.80;;;;;22.74;40.21;97954.50;5068842;28;8849;-78
2022/09/29 03:12:20;;;;;;;;;2.00;2.00;;;;;22.79;39.84;97954.13;5086750;28;8854;-77
2022/09/29 03:14:49;;;;;;;;;2.20;2.20;;;;;22.87;39.76;97954.41;5068827;28;8857;-77
2022/09/29 03:17:17;;;;;;;;;0.80;0.80;;;;;22.86;39.97;97954.53;5052562;28;8848;-78
2022/09/29 03:19:46;;;;;;;;;10.40;8.00;;;;;22.95;39.85;97956.50;5066752;28;8847;-77
2022/09/29 03:22:16;;;;;;;;;1.60;1.60;;;;;22.94;39.67;97954.78;5035902;28;8840;-77
2022/09/29 03:24:45;;;;;;;;;2.60;1.80;;;;;23.07;39.39;97955.56;5087228;28;8870;-79
2022/09/29 03:27:13;;;;;;;;;2.80;2.80;;;;;23.11;39.18;97945.53;5087902;28;8890;-77
2022/09/29 03:29:42;;;;;;;;;31.75;26.75;;;;;23.00;39.67;97956.13;5087128;28;8841;-78
2022/09/29 03:32:10;;;;;;;;;4.80;4.80;;;;;23.18;39.27;97956.56;5088021;28;8880;-78
2022/09/29 03:34:39;;;;;;;;;5.60;4.40;;;;;23.11;39.41;97953.50;5067143;28;9784;-79
2022/09/29 03:37:08;;;;;;;;;3.40;3.40;;;;;23.07;38.95;97957.38;5084526;28;8841;-78
2022/09/29 03:39:38;;;;;;;;;0.60;0.60;;;;;23.08;39.17;97949.28;5090234;28;8888;-78
2022/09/29 03:42:06;;;;;;;;;3.00;3.00;;;;;22.98;39.62;97957.06;5090396;28;8941;-79
2022/09/29 03:44:35;;;;;;;;;2.00;2.00;;;;;22.80;40.38;97952.31;5055028;28;8855;-76
2022/09/29 03:47:03;;;;;;;;;1.80;1.80;;;;;22.87;40.54;97951.75;5090207;28;8979;-77
2022/09/29 03:49:32;;;;;;;;;1.80;1.80;;;;;22.85;40.73;97950.16;5089653;28;8858;-77
2022/09/29 03:52:01;;;;;;;;;4.20;2.00;;;;;22.89;40.54;97949.81;5090537;28;8904;-76
2022/09/29 03:54:29;;;;;;;;;2.20;2.00;;;;;22.91;40.40;97941.72;5090944;28;8856;-79
2022/09/29 03:56:59;;;;;;;;;1.80;1.80;;;;;22.78;40.54;97944.50;5072090;28;8845;-77
2022/09/29 03:59:28;;;;;;;;;1.60;1.60;;;;;22.87;40.41;97943.78;5090701;28;8945;-76
2022/09/29 04:01:56;;;;;;;;;2.00;2.00;;;;;22.87;40.35;97950.91;5091542;28;8926;-77
2022/09/29 04:04:25;;;;;;;;;3.80;3.00;;;;;22.91;40.50;97952.34;5067200;28;8836;-77
2022/09/29 04:06:54;;;;;;;;;2.60;2.60;;;;;22.96;40.37;97952.84;5071412;28;8859;-79
2022/09/29 04:09:22;;;;;;;;;2.20;1.80;;;;;22.79;40.78;97951.47;5070991;28;8902;-76
2022/09/29 04:11:50;;;;;;;;;3.40;3.40;;;;;22.79;40.69;97948.81;5069596;28;8860;-77
2022/09/29 04:14:20;;;;;;;;;2.80;2.00;;;;;22.87;40.37;97957.06;5091213;28;8869;-76
2022/09/29 04:16:49;;;;;;;;;3.60;3.60;;;;;22.80;40.87;97957.63;5073058;28;8868;-77
2022/09/29 04:19:17;;;;;;;;;3.60;2.80;;;;;23.01;40.46;97961.31;5039183;28;8876;-76
2022/09/29 04:21:46;;;;;;;;;3.20;2.60;;;;;22.97;40.54;97952.72;5061589;28;8840;-77
2022/09/29 04:24:14;;;;;;;;;5.20;4.80;;;;;23.15;40.41;97955.78;5035406;28;8913;-77
2022/09/29 04:26:43;;;;;;;;;5.00;4.40;;;;;23.01;40.46;97957.81;5035865;28;9557;-77
2022/09/29 04:29:12;;;;;;;;;2.20;1.40;;;;;23.26;40.01;97960.28;5051715;28;8844;-77
2022/09/29 04:31:42;;;;;;;;;4.20;4.20;;;;;23.28;40.43;97971.66;5070064;28;8844;-79
2022/09/29 04:34:10;;;;;;;;;4.00;4.00;;;;;23.32;40.40;97961.63;5052238;28;8856;-78
2022/09/29 04:36:39;;;;;;;;;7.60;7.60;;;;;23.35;40.40;97972.03;5061972;28;8834;-76
2022/09/29 04:39:07;;;;;;;;;6.20;5.80;;;;;23.31;40.63;97970.59;5067787;28;8856;-75
2022/09/29 04:41:38;;;;;;;;;3.20;3.20;;;;;23.06;40.89;97976.94;5055293;28;9723;-77
2022/09/29 04:44:07;;;;;;;;;7.80;6.20;;;;;23.11;41.18;97978.28;5090814;28;8885;-77
2022/09/29 04:46:35;;;;;;;;;6.00;5.20;;;;;22.93;41.68;97977.00;5090275;28;8857;-77
2022/09/29 04:49:05;;;;;;;;;6.20;6.20;;;;;23.05;41.33;97980.59;5070758;28;9604;-78
2022/09/29 04:51:34;;;;;;;;;6.20;4.80;;;;;23.03;41.81;97985.13;5072283;28;8942;-79
2022/09/29 04:54:03;;;;;;;;;9.40;7.80;;;;;22.74;42.72;97993.50;5088916;28;9567;-77
2022/09/29 04:56:31;;;;;;;;;5.60;5.60;;;;;22.73;42.70;97990.00;5072042;28;8830;-77
2022/09/29 04:59:00;;;;;;;;;6.40;5.00;;;;;22.71;42.56;97999.91;5090701;28;8862;-78
2022/09/29 05:01:28;;;;;;;;;2.80;2.80;;;;;22.42;42.86;98004.75;5081362;28;8851;-78
2022/09/29 05:03:57;;;;;;;;;4.60;4.60;;;;;22.33;43.36;97997.44;5054492;28;8952;-77
2022/09/29 05:06:28;;;;;;;;;5.20;5.00;;;;;22.24;43.46;97996.28;5090601;28;8849;-77
2022/09/29 05:08:56;;;;;;;;;6.80;6.80;;;;;22.29;43.53;97996.81;5089984;28;8928;-77
2022/09/29 05:11:24;;;;;;;;;3.00;3.00;;;;;22.29;43.28;98004.78;5070502;28;8869;-77
2022/09/29 05:13:53;;;;;;;;;6.20;5.40;;;;;22.26;43.14;97998.84;5071777;28;8826;-77
2022/09/29 05:16:21;;;;;;;;;2.60;2.60;;;;;22.30;43.25;98003.81;5003635;28;8900;-79
2022/09/29 05:18:50;;;;;;;;;5.40;5.40;;;;;22.55;43.13;98007.31;5070672;28;8858;-77
2022/09/29 05:21:19;;;;;;;;;5.40;4.20;;;;;22.56;42.79;98009.88;5089611;28;8870;-77
2022/09/29 05:23:57;;;;;;;;;5.20;5.20;;;;;22.69;42.63;98007.16;5056242;28;8854;-77
2022/09/29 05:26:26;;;;;;;;;5.60;4.40;;;;;22.56;42.87;98003.72;5089194;28;8934;-77
2022/09/29 05:28:54;;;;;;;;;4.60;3.40;;;;;22.46;42.79;98006.22;5053670;28;8866;-77
2022/09/29 05:31:23;;;;;;;;;3.00;3.00;;;;;22.42;42.51;98020.69;5070856;28;8899;-76
2022/09/29 05:33:52;;;;;;;;;6.20;5.20;;;;;22.30;43.21;98022.41;5088978;28;8845;-77
2022/09/29 05:36:20;;;;;;;;;3.80;3.00;;;;;22.18;42.73;98015.31;5070741;28;8853;-77
2022/09/29 05:38:49;;;;;;;;;4.20;4.20;;;;;22.33;42.72;98022.19;5071000;28;8974;-77
2022/09/29 05:41:21;;;;;;;;;4.80;4.80;;;;;22.39;42.97;98026.22;5088917;28;8833;-77
2022/09/29 05:43:52;;;;;;;;;4.20;3.40;;;;;22.37;43.41;98022.81;5089178;28;8866;-77
2022/09/29 05:46:23;;;;;;;;;10.40;10.00;;;;;22.55;43.51;98036.53;5085351;28;9604;-78
2022/09/29 05:48:53;;;;;;;;;5.60;4.40;;;;;22.72;44.12;98036.16;5088971;28;9611;-77
2022/09/29 05:51:25;;;;;;;;;8.80;8.00;;;;;22.89;44.10;98037.56;5021573;28;8889;-77
2022/09/29 05:53:55;;;;;;;;;9.00;9.00;;;;;22.92;44.58;98039.13;5068632;28;8902;-77
2022/09/29 05:56:26;;;;;;;;;8.00;8.00;;;;;23.13;45.69;98048.16;5036979;28;8850;-76
2022/09/29 05:58:55;;;;;;;;;3.20;3.20;;;;;22.94;45.81;98053.16;5088096;28;8850;-78
2022/09/29 06:01:26;;;;;;;;;7.60;7.40;;;;;22.66;46.57;98055.19;5088343;28;8838;-78
2022/09/29 06:03:55;;;;;;;;;7.00;6.20;;;;;22.51;47.00;98051.88;5087412;28;8985;-79
2022/09/29 06:06:25;;;;;;;;;12.40;12.00;;;;;22.15;48.84;98050.88;5073307;28;8930;-76
2022/09/29 06:08:54;;;;;;;;;4.00;4.00;;;;;22.09;48.28;98056.66;5069434;28;8845;-75
2022/09/29 06:11:26;;;;;;;;;7.60;5.80;;;;;22.20;48.35;98048.75;5069657;28;8850;-76
2022/09/29 06:13:55;;;;;;;;;4.20;4.20;;;;;22.07;48.82;98055.91;5086311;28;8887;-74
2022/09/29 06:16:26;;;;;;;;;4.40;4.00;;;;;21.73;49.90;98049.50;5069178;28;8870;-75
2022/09/29 06:18:55;;;;;;;;;5.00;4.60;;;;;21.67;50.34;98047.28;5067834;28;8866;-76
2022/09/29 06:21:26;;;;;;;;;4.20;4.20;;;;;21.50;51.07;98049.31;5085160;28;8876;-77
2022/09/29 06:23:55;;;;;;;;;5.80;5.60;;;;;21.43;51.75;98045.34;5066580;28;9060;-76
2022/09/29 06:26:26;;;;;;;;;4.40;3.20;;;;;21.37;52.19;98049.25;5067530;28;8948;-78
2022/09/29 06:28:57;;;;;;;;;3.40;3.40;;;;;21.44;52.69;98041.78;5063938;28;8868;-77
2022/09/29 06:31:27;;;;;;;;;5.60;5.60;;;;;21.42;53.90;98031.25;5040918;28;8980;-75
2022/09/29 06:33:58;;;;;;;;;4.00;4.00;;;;;21.64;52.83;98029.75;5034579;28;8880;-77
2022/09/29 06:39:17;;;;;;;;;9.40;8.60;;;;;21.90;51.98;98030.56;5080893;28;8832;-77
2022/09/29 06:41:52;;;;;;;;;3.40;3.40;;;;;21.69;52.01;98045.38;5066739;28;8944;-79
2022/09/29 06:44:23;;;;;;;;;4.20;2.80;;;;;21.51;52.86;98036.88;5065384;28;8859;-75
2022/09/29 06:46:52;;;;;;;;;3.20;3.20;;;;;21.42;53.94;98038.34;5068453;28;8882;-76
2022/09/29 06:49:21;;;;;;;;;5.80;5.80;;;;;21.35;54.15;98048.53;5047167;28;8972;-77
2022/09/29 06:51:50;;;;;;;;;4.60;4.00;;;;;21.49;53.45;98044.94;5088625;28;8853;-76
2022/09/29 06:54:20;;;;;;;;;3.20;3.20;;;;;21.37;54.61;98049.25;5052465;28;9053;-78
2022/09/29 06:56:52;;;;;;;;;3.00;2.80;;;;;21.42;54.18;98057.75;5068695;28;8952;-78
2022/09/29 06:59:20;;;;;;;;;5.60;5.60;;;;;21.77;53.66;98065.09;5068301;28;8880;-78
2022/09/29 07:01:49;;;;;;;;;5.20;5.20;;;;;21.80;53.72;98064.88;5068941;28;8859;-79
2022/09/29 07:04:21;;;;;;;;;8.00;6.40;;;;;21.79;53.58;98055.22;5068354;28;8852;-77
2022/09/29 07:06:50;;;;;;;;;7.80;6.80;;;;;22.05;53.40;98049.03;5084889;28;8948;-76
2022/09/29 07:09:19;;;;;;;;;5.40;5.40;;;;;22.20;53.12;98053.22;5068260;28;8901;-77
2022/09/29 07:11:51;;;;;;;;;6.40;5.20;;;;;22.39;52.40;98068.72;5083367;28;8898;-76
2022/09/29 07:14:22;;;;;;;;;5.40;5.00;;;;;22.31;52.21;98060.47;5084752;28;8997;-76
2022/09/29 07:16:52;;;;;;;;;5.00;4.40;;;;;22.46;52.19;98058.50;5101471;28;9127;-76
2022/09/29 07:19:21;;;;;;;;;8.00;6.80;;;;;22.79;51.46;98068.44;5084910;28;8868;-76
2022/09/29 07:21:50;;;;;;;;;2.80;2.80;;;;;23.05;50.08;98060.34;5051305;28;9006;-77
2022/09/29 07:24:19;;;;;;;;;2.40;2.40;;;;;23.08;49.80;98062.75;5050926;28;8925;-78
2022/09/29 07:26:47;;;;;;;;;1.80;1.80;;;;;23.29;49.28;98071.78;5067288;28;8889;-76
2022/09/29 07:29:17;;;;;;;;;4.20;4.00;;;;;23.47;48.91;98076.66;5085318;28;8855;-78
2022/09/29 07:31:46;;;;;;;;;2.80;2.80;;;;;23.38;49.05;98083.50;5068150;28;8835;-76
2022/09/29 07:34:21;;;;;;;;;5.80;5.60;;;;;23.50;49.31;98085.25;5051899;28;9008;-77
2022/09/29 07:36:50;;;;;;;;;6.20;5.40;;;;;23.79;48.92;98079.50;5068460;28;8982;-79
2022/09/29 07:39:21;;;;;;;;;5.20;5.20;;;;;23.92;47.99;98079.38;5067361;28;8860;-78
2022/09/29 07:41:50;;;;;;;;;5.40;5.40;;;;;24.01;47.41;98086.66;5032773;28;8863;-76
2022/09/29 07:44:20;;;;;;;;;6.00;6.00;;;;;24.20;47.78;98091.34;5081681;28;8845;-76
2022/09/29 07:46:49;;;;;;;;;5.00;5.00;;;;;24.00;47.43;98098.25;5068560;28;8930;-78
2022/09/29 07:49:18;;;;;;;;;4.00;4.00;;;;;23.99;47.32;98096.56;5078129;28;8852;-77
2022/09/29 07:51:47;;;;;;;;;4.80;4.80;;;;;24.13;47.18;98090.97;5048828;28;8867;-77
2022/09/29 07:54:15;;;;;;;;;7.20;6.40;;;;;24.14;47.70;98094.50;5066980;28;8847;-77
2022/09/29 07:56:44;;;;;;;;;4.00;3.20;;;;;24.25;46.60;98094.50;5048186;28;8864;-76
2022/09/29 07:59:13;;;;;;;;;6.00;5.20;;;;;24.32;46.27;98089.50;5077656;28;8863;-76
2022/09/29 08:01:43;;;;;;;;;5.00;5.00;;;;;24.05;46.81;98095.25;5066460;28;8850;-76
2022/09/29 08:04:11;;;;;;;;;5.00;4.00;;;;;23.81;47.45;98106.00;5049439;28;8846;-76
2022/09/29 08:06:41;;;;;;;;;3.60;3.60;;;;;23.59;48.63;98102.31;5069154;28;8975;-70
2022/09/29 08:09:10;;;;;;;;;3.00;3.00;;;;;23.70;47.72;98101.47;5076946;28;9685;-74
2022/09/29 08:11:39;;;;;;;;;5.00;4.00;;;;;23.40;48.60;98110.00;5066876;28;8875;-74
2022/09/29 08:14:10;;;;;;;;;4.20;2.20;;;;;23.42;48.66;98113.38;5049177;28;8858;-73
2022/09/29 08:16:38;;;;;;;;;2.20;2.20;;;;;23.42;49.39;98116.06;5066660;28;8860;-74
2022/09/29 08:19:09;;;;;;;;;3.00;2.60;;;;;23.42;48.88;98114.25;5066550;28;8998;-73
2022/09/29 08:21:38;;;;;;;;;4.40;2.80;;;;;23.57;48.48;98114.88;5065543;28;9000;-74
2022/09/29 08:24:07;;;;;;;;;3.00;3.00;;;;;23.64;49.06;98116.09;5068191;28;8932;-73
2022/09/29 08:26:37;;;;;;;;;4.00;2.00;;;;;23.65;48.55;98120.47;5074294;28;9611;-75
2022/09/29 08:29:13;;;;;;;;;5.00;3.80;;;;;23.83;48.45;98122.69;5056424;28;8861;-73
2022/09/29 08:31:45;;;;;;;;;2.00;2.00;;;;;23.78;47.73;98131.03;5063647;28;8883;-77
2022/09/29 08:34:16;;;;;;;;;4.00;4.00;;;;;23.77;48.58;98131.13;5077700;28;8854;-73
2022/09/29 08:36:45;;;;;;;;;4.40;4.20;;;;;23.91;48.23;98122.94;5090868;28;8870;-75
2022/09/29 08:39:14;;;;;;;;;6.20;6.20;;;;;24.32;47.86;98126.81;5091375;28;8834;-76
2022/09/29 08:41:52;;;;;;;;;5.40;5.40;;;;;24.09;47.42;98121.50;5073189;28;8834;-73
2022/09/29 08:44:29;;;;;;;;;3.00;3.00;;;;;24.42;47.28;98122.44;5076261;28;8893;-76
2022/09/29 08:47:18;;;;;;;;;4.00;3.20;;;;;24.13;47.78;98120.28;5071726;28;8865;-74
2022/09/29 08:49:53;;;;;;;;;2.00;2.00;;;;;24.22;47.63;98120.53;5091064;28;8930;-75
2022/09/29 08:52:25;;;;;;;;;3.60;3.60;;;;;24.05;47.51;98117.38;5080955;28;8862;-73
2022/09/29 08:54:59;;;;;;;;;5.20;4.00;;;;;24.09;47.43;98121.50;5082597;28;8877;-72
2022/09/29 08:57:39;;;;;;;;;3.00;3.00;;;;;24.21;47.25;98118.81;5054374;28;9597;-74
2022/09/29 09:00:12;;;;;;;;;4.00;4.00;;;;;24.42;47.28;98127.75;5071570;28;8854;-75
2022/09/29 09:03:00;;;;;;;;;5.00;5.00;;;;;24.65;46.87;98133.09;5084870;28;8973;-74
2022/09/29 09:05:46;;;;;;;;;4.20;3.20;;;;;24.75;46.61;98133.22;5051026;28;8872;-72
2022/09/29 09:08:25;;;;;;;;;3.80;3.80;;;;;24.67;47.15;98139.16;5069515;28;8878;-74
2022/09/29 09:11:05;;;;;;;;;4.00;2.40;;;;;24.82;47.00;98151.25;5069446;28;8924;-76
2022/09/29 09:13:54;;;;;;;;;4.20;4.20;;;;;24.81;46.85;98144.19;5069431;28;8844;-76
2022/09/29 09:16:35;;;;;;;;;5.20;3.00;;;;;24.96;46.68;98138.59;5051421;28;8852;-75
2022/09/29 09:19:36;;;;;;;;;3.20;2.00;;;;;24.97;44.74;98142.94;5068730;28;8846;-72
2022/09/29 09:22:20;;;;;;;;;3.60;2.40;;;;;25.04;45.20;98142.31;5051640;28;8886;-76
2022/09/29 09:24:56;;;;;;;;;8.00;7.20;;;;;25.42;44.64;98135.63;5058586;28;8944;-75
2022/09/29 09:27:31;;;;;;;;;3.40;3.00;;;;;25.22;44.45;98145.28;5075234;28;8870;-75
2022/09/29 09:30:07;;;;;;;;;3.40;2.00;;;;;25.45;44.36;98148.72;5069162;28;8864;-72
2022/09/29 09:32:42;;;;;;;;;2.60;1.40;;;;;25.51;44.68;98151.84;5069156;28;8864;-74
2022/09/29 09:35:27;;;;;;;;;1.80;1.00;;;;;25.76;43.98;98150.59;5058366;28;8865;-75
2022/09/29 09:38:01;;;;;;;;;2.40;2.40;;;;;25.78;44.32;98146.81;5072734;28;9648;-74
2022/09/29 09:40:38;;;;;;;;;4.60;4.60;;;;;26.17;43.73;98149.72;5040081;28;8893;-70
2022/09/29 09:43:14;;;;;;;;;3.00;3.00;;;;;26.78;42.75;98147.97;5048467;28;8869;-70
2022/09/29 09:45:48;;;;;;;;;3.40;3.40;;;;;26.84;41.82;98150.09;5045887;28;8878;-69
2022/09/29 09:48:21;;;;;;;;;3.20;3.00;;;;;26.77;41.42;98147.13;5074338;28;8870;-71
2022/09/29 09:50:53;;;;;;;;;2.80;2.80;;;;;26.84;41.56;98153.63;5049048;28;8850;-70
2022/09/29 09:53:29;;;;;;;;;2.80;2.00;;;;;26.81;41.97;98148.53;5064835;28;9083;-77
2022/09/29 09:56:11;;;;;;;;;3.20;3.20;;;;;27.34;41.27;98154.53;5049059;28;8973;-76
2022/09/29 09:59:02;;;;;;;;;6.40;6.20;;;;;27.63;40.27;98154.50;5063753;28;10097;-78
2022/09/29 10:01:31;;;;;;;;;6.80;5.40;;;;;27.76;39.92;98164.91;5027094;28;8883;-76
2022/09/29 10:04:01;;;;;;;;;4.00;4.00;;;;;27.94;39.41;98162.34;5025419;28;8956;-76
2022/09/29 10:06:29;;;;;;;;;4.60;4.00;;;;;27.94;39.06;98165.91;5032527;28;8862;-78
2022/09/29 10:08:59;;;;;;;;;5.80;5.60;;;;;28.05;38.93;98172.91;5051489;28;8870;-76
2022/09/29 10:11:31;;;;;;;;;3.40;3.40;;;;;27.57;38.92;98169.31;5060428;28;8934;-77
2022/09/29 10:14:04;;;;;;;;;4.00;4.00;;;;;27.90;38.88;98177.03;5088156;28;8861;-76
2022/09/29 10:16:41;;;;;;;;;4.00;4.00;;;;;28.09;38.87;98178.81;5052260;28;8847;-76
2022/09/29 10:19:10;;;;;;;;;3.00;3.00;;;;;28.30;38.32;98176.78;5018880;28;8835;-77
2022/09/29 10:21:41;;;;;;;;;5.60;4.80;;;;;28.47;38.97;98182.34;5078100;28;8866;-78
2022/09/29 10:24:28;;;;;;;;;3.40;3.00;;;;;28.58;38.26;98175.00;5071339;28;8837;-77
2022/09/29 10:26:59;;;;;;;;;4.60;4.60;;;;;28.61;37.68;98176.53;5079002;28;8894;-76
2022/09/29 10:29:36;;;;;;;;;9.40;7.40;;;;;28.69;37.94;98179.28;5050201;28;8857;-78
2022/09/29 10:32:09;;;;;;;;;3.00;2.80;;;;;28.45;37.21;98178.97;5068912;28;8985;-77
2022/09/29 10:34:41;;;;;;;;;5.00;5.00;;;;;28.61;37.07;98175.69;5070250;28;8854;-78
2022/09/29 10:37:23;;;;;;;;;1.40;1.40;;;;;28.26;35.05;98169.16;5088263;28;9016;-77
2022/09/29 10:40:04;;;;;;;;;3.60;3.60;;;;;28.63;35.21;98173.69;5088050;28;8931;-78
2022/09/29 10:42:36;;;;;;;;;4.80;4.00;;;;;28.66;35.48;98176.06;5069942;28;8853;-77
2022/09/29 10:45:14;;;;;;;;;4.80;4.80;;;;;28.75;34.30;98180.53;5068386;28;8852;-76
2022/09/29 10:47:46;;;;;;;;;6.20;5.40;;;;;28.88;34.75;98182.88;5068544;28;8933;-78
2022/09/29 10:50:18;;;;;;;;;4.00;4.00;;;;;28.99;35.37;98176.44;5068159;28;8828;-78
2022/09/29 10:52:52;;;;;;;;;1.20;1.20;;;;;28.82;34.14;98178.94;5020234;28;8880;-74
2022/09/29 10:55:24;;;;;;;;;6.20;4.20;;;;;28.80;34.98;98174.72;5032779;28;8895;-77
2022/09/29 10:57:55;;;;;;;;;4.80;4.00;;;;;28.66;35.23;98176.94;5061845;28;8896;-74
2022/09/29 11:00:26;;;;;;;;;5.00;4.40;;;;;28.68;34.60;98183.00;5039671;28;8861;-77
2022/09/29 11:03:03;;;;;;;;;2.80;2.80;;;;;28.58;33.74;98179.50;5062207;28;8854;-74
2022/09/29 11:05:32;;;;;;;;;8.00;5.40;;;;;28.66;34.68;98184.09;5087687;28;8822;-75
2022/09/29 11:08:02;;;;;;;;;5.40;5.20;;;;;28.90;34.10;98175.50;5070688;28;8899;-74
2022/09/29 11:10:34;;;;;;;;;3.40;3.00;;;;;29.14;34.56;98169.59;5070570;28;8879;-74
2022/09/29 11:13:36;;;;;;;;;3.20;2.00;;;;;29.22;32.53;98166.97;5069512;28;8898;-74
2022/09/29 11:16:12;;;;;;;;;5.80;5.80;;;;;29.41;31.70;98182.06;5020536;28;8887;-73
2022/09/29 11:18:43;;;;;;;;;6.60;6.60;;;;;29.55;30.94;98173.47;5039472;28;9034;-75
2022/09/29 11:21:52;;;;;;;;;4.80;4.80;;;;;29.90;31.03;98169.06;5072743;28;8864;-75
2022/09/29 11:24:34;;;;;;;;;6.00;6.00;;;;;30.12;32.05;98158.78;5085470;28;8854;-76
2022/09/29 11:27:15;;;;;;;;;3.20;2.00;;;;;30.32;30.36;98151.34;5079534;28;8820;-76
2022/09/29 11:29:54;;;;;;;;;4.40;3.80;;;;;30.30;31.25;98159.56;5060857;28;8826;-77
2022/09/29 11:32:38;;;;;;;;;3.00;2.80;;;;;30.45;31.17;98154.44;5069605;28;8868;-74
2022/09/29 11:35:28;;;;;;;;;0.00;0.00;;;;;30.18;31.36;98166.22;5087769;28;8890;-73
2022/09/29 11:38:41;;;;;;;;;1.80;1.80;;;;;30.33;30.57;98154.91;5005007;28;8854;-75
2022/09/29 11:41:32;;;;;;;;;5.60;5.60;;;;;30.46;31.21;98158.81;4889786;29;8862;-74
2022/09/29 11:44:16;;;;;;;;;2.00;2.00;;;;;30.53;30.17;98156.34;4873949;29;8877;-75
2022/09/29 11:47:02;;;;;;;;;2.00;2.00;;;;;30.54;30.75;98165.25;4890369;29;8870;-75
2022/09/29 11:49:55;;;;;;;;;4.40;3.20;;;;;30.62;31.23;98163.41;4890246;29;9000;-74
2022/09/29 11:52:36;;;;;;;;;5.00;3.80;;;;;30.73;29.58;98164.97;4889526;29;8897;-73
2022/09/29 11:55:22;;;;;;;;;3.20;2.20;;;;;30.70;28.99;98154.53;4890291;29;9013;-76
2022/09/29 11:58:01;;;;;;;;;1.00;1.00;;;;;31.05;29.01;98160.72;4889754;29;8882;-74
2022/09/29 12:00:46;;;;;;;;;2.80;2.00;;;;;31.47;28.90;98154.38;4893787;29;8972;-78
2022/09/29 12:03:27;;;;;;;;;1.80;1.80;;;;;31.72;29.03;98162.44;4893656;29;8873;-74
2022/09/29 12:06:09;;;;;;;;;1.60;1.20;;;;;31.93;29.23;98164.59;4893532;29;8916;-75
2022/09/29 12:08:55;;;;;;;;;3.40;3.40;;;;;31.62;29.06;98160.75;4893626;29;10060;-77
2022/09/29 12:11:34;;;;;;;;;3.00;3.00;;;;;31.54;28.78;98158.09;4893487;29;8900;-74
2022/09/29 12:14:32;;;;;;;;;3.60;3.60;;;;;30.76;30.15;98158.44;4886464;28;8869;-77